Surface Preassure
0:00 UTC
12:00 UTC (Click for larger versions)
Andrewsfield Outlook

Current time:


  10:41:52pm (GMT)      10:41:52pm (UTC)


Headline: Mist and low cloud towards the coast, moving inland overnight.

This Evening and Tonight: Dry with mist and low cloud mainly affecting coastal areas at first with some clear spells elsewhere. The cloud and mist will then spread southwestwards through the evening and overnight to affect most parts by dawn. Minimum Temperature 8C.

Thursday: Low cloud, along with any mist or fog, will clear back towards the coast through the morning, leaving a dry day with warm sunny spells for most inland areas. Maximum Temperature 21C.

Outlook for Friday to Sunday: Cloudy with outbreaks of heavy and occasionally thundery rain for Friday. Drier, brighter and warmer through Saturday and Sunday, with long sunny spells, but cooler towards the coast.

Forecast

Weather warnings

Nearby METAR/TAF

Stansted (EGSS)


Current conditions: VFR

METAR: EGSS 232220Z AUTO 01009KT 9999 NCD 11/09 Q1023

TAF: TAF EGSS 231705Z 2318/2424 03010KT 9999 SCT030 PROB30 TEMPO 2318/2407 7000 SHRA PROB30 TEMPO 2322/2408 BKN010 PROB30 TEMPO 2415/2418 4000 +SHRA PROB40 TEMPO 2418/2424 3000 +SHRA +TSRA

Southend (EGMC)


Current conditions: VFR

METAR: EGMC 232220Z 36007KT CAVOK 13/09 Q1021

TAF: TAF EGMC 232002Z 2321/2406 02012KT 9999 FEW045 PROB30 TEMPO 2322/2406 7000 SHRA

RAF Wattisham (EGUW)


Current conditions: VFR

METAR: EGUW 232150Z 02013KT CAVOK 11/08 Q1022 BLU NOSIG

TAF: TAF EGUW 231936Z 2321/2401 03012KT CAVOK